Port Angeles, WA

3:14 AM PST on December 25, 2014 (GMT -0800)
HADS DUNGENESS RIVER NEAR MOUTH AT DU WA US WADOECO | Change Station
CLOSE
Current Station
Personal Weather Station
Location: Carlsborg, WA
Elevation: 15 ft
Nearby Weather Stations

Elev 15 ft 48.14 °N, 123.13 °W | Updated 1 hour ago

Partly Cloudy
Partly Cloudy
35 °F
Feels Like 35 °F
N
Wind Variable Wind from North
Gusts 0.0 mph

Today
High -- | Low -- °F
--% Chance of Precip.
Yesterday
High -- | Low -- °F
Precip. -- in
8:02 AM 4:25 PM
Waxing Crescent, 15% visible
Pressure 30.09 in
Visibility 10.0 miles
Clouds Clear
Windchill 35 °F
Dew Point Not available.
Humidity Not available.
Rainfall -999.00 in
Snow Depth Not available.
UV 0 out of 12
Pollen .50 out of 12
Air Quality Not available.
Flu Activity Not available.
METAR KCLM 251053Z AUTO 24009KT 10SM CLR 05/00 A3008 RMK AO2 SLP189 T00500000 TSNO $

More Conditions Fewer Conditions

Pressure 30.09 in
Visibility 10.0 miles
Clouds Clear
Windchill 35 °F
Dew Point Not available.
Humidity Not available.
Rainfall -999.00 in
Snow Depth Not available.
UV 0 out of 12
Pollen .50 out of 12
Air Quality Not available.
Flu Activity Not available.
METAR KCLM 251053Z AUTO 24009KT 10SM CLR 05/00 A3008 RMK AO2 SLP189 T00500000 TSNO $

More Conditions Fewer Conditions

10-Day Weather Forecast

Almanac

Astronomy

Dec. 25, 2014 Rise Set
Actual Time
Civil Twilight
Nautical Twilight
Astronomical Twilight
Moon
Length of Visible Light
Length of Day
Tomorrow will be .
, % of the Moon is Illuminated

Today's Extremes

State Highs State Lows

Community

WunderPhotos

Upload Photos

1,780,259 photos uploaded!

WunderBlogs® & News

Nearby

Air Quality

  Air Quality AQ Index Pollutant
Not available.

Snow Depth

Station Depth Elevation

Earthquake Activity

City Distance Mag. Time & Date
Minimum magnitude displayed is 2.5.

Coastal Water Temperatures

Place Temperature

Nearby Weather Stations